Airport View

Enter AWOS ICAO identifier for current METAR.

ex. KFNL

KLHM 241035Z AUTO 00000KT 10SM CLR 01/00 A3027 RMK AO1

24 Jan 2019 10:49

Frequency: 124.25

Phone: 916-645-0698

Other Area AWOS: KAUN - KBAB - KMCC - KMYV

TAF AMD KBAB 240618Z 2406/2509 VRB06KT 9999 FEW200 QNH3025INS BECMG 2411/2412 VRB06KT 9999 SKC QNH3018INS TX17/2421Z TN03/2414Z LIMITED METWATCH 2407 TIL 2413